Tiempo atmosférico en la estación meteorológica de Salobreña, Granada (20 m.)



Fecha
DESCASC
Temp. máxima en grados centígrados (hora)
DESCASC
Temp. mínima en grados centígrados (hora)
DESCASC
Temp. media en grados centígrados
DESCASC
Racha de viento máxima en m/sg (hora)
DESCASC
Velocidad máxima media en intervalos de 10 minutos(hora)
DESCASC
Precipitaciones diarias en mm
DESCASC
Precipitaciones de 00:00 a 06:00 en mm
DESCASC
Precipitaciones de 06:00 a 12:00 en mm
DESCASC
Precipitaciones de 12:00 a 18:00 en mm
DESCASC
Precipitaciones de 18:00 a 24:00 en mm
DESCASC
23-06-2019 25.3 (14:20) 17.4 (07:20) 21.3 6.11 (18:00) 3.61 (16:10) 0 0 0 0 0
22-06-2019 25 (13:50) 15.9 (06:30) 20.4 6.94 (14:30) 4.17 (16:20) 0 0 0 0 0
21-06-2019 25.1 (17:10) 15.7 (05:10) 20.4 6.11 (11:00) 4.17 (11:00) 0 0 0 0 0
20-06-2019 26.8 (17:50) 16.2 (00:00) 21.5 14.17 (16:00) 7.22 (14:30) 0 0 0 0 0
19-06-2019 -- (--) -- (--) -- -- (--) -- (--) -- -- -- -- 0
18-06-2019 -- (--) -- (--) -- -- (--) -- (--) -- 0 0 0 --
17-06-2019 24.1 (17:10) 14 (00:00) 19.1 6.11 (14:40) 4.17 (14:40) 0 0 0 0 0
16-06-2019 24 (17:10) 13 (00:00) 18.5 6.11 (15:30) 3.89 (12:40) 0 0 0 0 0
15-06-2019 23.4 (11:00) 12.6 (00:00) 18 8.06 (12:30) 4.17 (12:10) 0 0 0 0 0
14-06-2019 22.2 (19:20) 15.3 (00:00) 18.8 14.44 (16:20) 7.5 (11:00) 0 0 0 0 0
13-06-2019 23.6 (16:00) 15.6 (00:00) 19.6 9.17 (12:00) 5 (12:10) 0 0 0 0 0
12-06-2019 24.6 (11:20) 16.1 (00:00) 20.4 9.72 (12:00) 6.67 (14:30) 0 0 0 0 0
11-06-2019 27.7 (17:00) 13.7 (00:00) 20.7 16.94 (18:20) 9.44 (18:20) 0 0 0 0 0
10-06-2019 25.3 (09:30) 16.3 (00:00) 20.8 14.17 (13:40) 7.78 (14:10) 0 0 0 0 0
09-06-2019 23.7 (18:50) 16.7 (00:00) 20.2 13.33 (14:40) 6.67 (15:20) 0 0 0 0 0
08-06-2019 24.3 (16:20) 14.7 (00:00) 19.5 8.33 (17:10) 4.44 (10:30) 0 0 0 0 0
07-06-2019 23.9 (09:20) 11.8 (00:00) 17.8 13.33 (15:00) 7.22 (15:10) 0 0 0 0 0
06-06-2019 24.4 (18:00) 13.9 (00:00) 19.1 9.72 (19:10) 5 (19:10) 0 0 0 0 0
05-06-2019 25.2 (12:00) 16.4 (00:00) 20.8 16.11 (15:00) 9.17 (15:00) 0 0 0 0 0
04-06-2019 25.1 (16:20) 12.2 (00:00) 18.7 7.5 (14:40) 4.44 (12:50) 0 0 0 0 0
03-06-2019 24 (18:40) 13.8 (00:00) 18.9 5.56 (13:00) 3.33 (11:00) 0 0 0 0 0
02-06-2019 25.6 (15:30) 13.6 (00:00) 19.6 6.11 (16:20) 3.61 (14:10) 0 0 0 0 0
01-06-2019 25.5 (16:10) 14.4 (00:00) 19.9 7.5 (12:00) 3.61 (12:50) 0 0 0 0 0
31-05-2019 25.8 (13:30) 13.5 (00:00) 19.6 10.28 (15:20) 6.39 (15:00) 0 0 0 0 0
30-05-2019 25.5 (15:30) 14.6 (00:00) 20.1 12.22 (16:50) 6.94 (16:50) 0 0 0 0 0
29-05-2019 25.1 (12:30) 16.3 (00:00) 20.7 8.61 (12:50) 6.11 (16:00) 0 0 0 0 0
28-05-2019 25.9 (13:30) 14.7 (00:00) 20.3 7.22 (13:50) 5 (14:10) 0 0 0 0 0
27-05-2019 24.7 (17:20) 13.3 (00:00) 19 6.67 (18:10) 4.17 (14:30) 0 0 0 0 0
26-05-2019 22.9 (15:20) 13.5 (00:00) 18.2 6.39 (14:20) 3.89 (14:20) 0 0 0 0 0

Gráficas

Temp. máximas Temp. mínimas Temp. medias Precipitaciones Rachas de viento máximas Velocidades máximas media en intervalos de 10 minutos

Datos horarios

Fecha y hora oficial Temperatura (ºC) Velocidad del viento (km/h) Dirección del viento Racha (km/h) Dirección de racha Precipitación (mm) Presión (hPa) Tendencia (hPa) Humedad (%)
2019-06-24 23:00:00 20.5 0 Calma 8 Noroeste 0 -- -- 86
2019-06-24 22:00:00 21.6 6 Noroeste 13 Noroeste 0 -- -- 82
2019-06-24 21:00:00 22.8 5 Sudoeste 22 Sudoeste 0 -- -- 78
2019-06-24 20:00:00 23.2 11 Sudoeste 23 Oeste 0 -- -- 75
2019-06-24 19:00:00 23.5 13 Sudoeste 24 Oeste 0 -- -- 76
2019-06-24 18:00:00 24.2 12 Oeste 26 Oeste 0 -- -- 73
2019-06-24 17:00:00 23.9 15 Oeste 27 Sudoeste 0 -- -- 72
2019-06-24 16:00:00 24.9 14 Oeste 22 Oeste 0 -- -- 67
2019-06-24 15:00:00 24.7 12 Oeste 22 Sudoeste 0 -- -- 67
2019-06-24 14:00:00 24.2 13 Oeste 22 Sudoeste 0 -- -- 72
2019-06-24 13:00:00 24.4 14 Sudoeste 23 Sudoeste 0 -- -- 69
2019-06-24 12:00:00 24.7 9 Sudoeste 17 Sudoeste 0 -- -- 64
2019-06-24 11:00:00 23.8 9 Sudoeste 14 Sur 0 -- -- 69
2019-06-24 10:00:00 23.3 6 Sudoeste 10 Sur 0 -- -- 72
2019-06-24 09:00:00 21.6 5 Oeste 8 Noroeste 0 -- -- 78
2019-06-24 08:00:00 18.4 2 Noroeste 8 Norte 0 -- -- 91
2019-06-24 07:00:00 17.2 6 Norte 9 Norte 0 -- -- 91
2019-06-24 06:00:00 17.7 5 Norte 12 Nordeste 0 -- -- 90
2019-06-24 05:00:00 17.9 6 Nordeste 9 Norte 0 -- -- 91
2019-06-24 04:00:00 18 5 Norte 9 Norte 0 -- -- 90
2019-06-24 03:00:00 18.4 4 Nordeste 9 Nordeste 0 -- -- 89
2019-06-24 02:00:00 18.9 4 Nordeste 7 Nordeste 0 -- -- 88
2019-06-24 01:00:00 19.1 4 Norte 6 Norte 0 -- -- 88
2019-06-24 00:00:00 20.3 4 Sudeste 6 Sudeste 0 -- -- 86
2019-06-23 23:00:00 20.9 0 Calma 5 Norte 0 -- -- 82
2019-06-23 22:00:00 22.1 5 Este 13 Oeste 0 -- -- 78
2019-06-23 21:00:00 23 8 Oeste 16 Sudoeste 0 -- -- 74
2019-06-23 20:00:00 24.1 8 Oeste 17 Oeste 0 -- -- 71
2019-06-23 19:00:00 24.8 10 Oeste 21 Oeste 0 -- -- 70
2019-06-23 18:00:00 25 12 Oeste 22 Sudoeste 0 -- -- 70
2019-06-23 17:00:00 24.9 13 Sudoeste 21 Sudoeste 0 -- -- 68
2019-06-23 16:00:00 25.1 12 Oeste 19 Sudoeste 0 -- -- 70
2019-06-23 15:00:00 25.1 11 Sudoeste 19 Oeste 0 -- -- 68
2019-06-23 14:00:00 24.6 10 Sudoeste 17 Sudoeste 0 -- -- 69
2019-06-23 13:00:00 23.2 7 Sudoeste 13 Oeste 0 -- -- 77
2019-06-23 12:00:00 22.9 8 Sudoeste 14 Sur 0 -- -- 78
2019-06-23 11:00:00 22.5 6 Oeste 11 Sudoeste 0 -- -- 79
2019-06-23 10:00:00 22.3 7 Sudoeste 12 Sudoeste 0 -- -- 79
2019-06-23 09:00:00 21.7 0 Calma 5 Nordeste 0 -- -- 83
2019-06-23 08:00:00 18.4 4 Nordeste 9 Norte 0 -- -- 94
2019-06-23 07:00:00 17.5 5 Nordeste 9 Norte 0 -- -- 93
2019-06-23 06:00:00 17.6 5 Nordeste 9 Nordeste 0 -- -- 92
2019-06-23 05:00:00 18 6 Nordeste 9 Nordeste 0 -- -- 92
2019-06-23 04:00:00 17.9 6 Norte 7 Norte 0 -- -- 91
2019-06-23 03:00:00 18.1 6 Norte 7 Norte 0 -- -- 91
2019-06-23 02:00:00 18.6 5 Norte 8 Norte 0 -- -- 90
2019-06-23 01:00:00 19.1 4 Nordeste 5 Norte 0 -- -- 88
2019-06-23 00:00:00 19.9 0 Calma 5 Norte 0 -- -- 85
2019-06-22 23:00:00 20.7 4 Norte 5 Norte 0 -- -- 83
2019-06-22 22:00:00 22 0 Calma 7 Sudoeste 0 -- -- 78
2019-06-22 21:00:00 23 2 Sur 13 Sudoeste 0 -- -- 77
2019-06-22 20:00:00 23.8 5 Sudoeste 16 Sudoeste 0 -- -- 73
2019-06-22 19:00:00 23.9 10 Sudoeste 22 Sudoeste 0 -- -- 75
2019-06-22 18:00:00 24.4 10 Sudoeste 22 Sudoeste 0 -- -- 73
2019-06-22 17:00:00 24.8 12 Sudoeste 24 Sudoeste 0 -- -- 71
2019-06-22 16:00:00 24.8 13 Sudoeste 23 Sudoeste 0 -- -- 72
2019-06-22 15:00:00 24.6 12 Sudoeste 25 Sur 0 -- -- 74
2019-06-22 14:00:00 24.9 12 Sudoeste 24 Sudoeste 0 -- -- 70
2019-06-22 13:00:00 24.4 11 Sur 19 Sudeste 0 -- -- 71
2019-06-22 12:00:00 23.1 8 Oeste 13 Sudoeste 0 -- -- 76
2019-06-22 11:00:00 22.4 8 Sudoeste 14 Sudoeste 0 -- -- 81
2019-06-22 10:00:00 21.7 10 Sudoeste 14 Sudoeste 0 -- -- 86
2019-06-22 09:00:00 21.2 5 Sudoeste 9 Oeste 0 -- -- 84
2019-06-22 08:00:00 18.2 2 Este 12 Noroeste 0 -- -- 86
2019-06-22 07:00:00 16.2 4 Nordeste 14 Norte 0 -- -- 88
2019-06-22 06:00:00 16.2 5 Nordeste 10 Nordeste 0 -- -- 89
2019-06-22 05:00:00 16.2 5 Nordeste 8 Norte 0 -- -- 88
2019-06-22 04:00:00 16.9 4 Norte 8 Norte 0 -- -- 89
2019-06-22 03:00:00 17.7 5 Norte 7 Norte 0 -- -- 89
2019-06-22 02:00:00 19 4 Norte 12 Sudoeste 0 -- -- 88
2019-06-22 01:00:00 20.2 5 Sudoeste 10 Sur 0 -- -- 86
2019-06-22 00:00:00 20.3 2 Sur 12 Nordeste 0 -- -- 72
2019-06-21 23:00:00 20.1 7 Nordeste 9 Nordeste 0 -- -- 78
2019-06-21 22:00:00 21.6 3 Este 4 Este 0 -- -- 75
2019-06-21 21:00:00 23.5 2 Noroeste 11 Sudoeste 0 -- -- 68
2019-06-21 20:00:00 23.2 6 Sudoeste 13 Sudoeste 0 -- -- 68
2019-06-21 19:00:00 23.7 9 Sudoeste 18 Sudoeste 0 -- -- 65
2019-06-21 18:00:00 24.1 10 Sudoeste 15 Oeste 0 -- -- 64
2019-06-21 17:00:00 24.7 9 Sudoeste 16 Sudoeste 0 -- -- 60
2019-06-21 16:00:00 24.9 9 Sudoeste 17 Sudoeste 0 -- -- 61
2019-06-21 15:00:00 24 10 Sudoeste 17 Sudoeste 0 -- -- 64
2019-06-21 14:00:00 23.5 10 Sudoeste 19 Sudoeste 0 -- -- 69
2019-06-21 13:00:00 24 11 Sudoeste 16 Sudoeste 0 -- -- 67
2019-06-21 12:00:00 23.5 12 Sur 21 Sur 0 -- -- 69
2019-06-21 11:00:00 22.7 15 Sur 22 Sur 0 -- -- 74
2019-06-21 10:00:00 22.4 13 Sur 19 Sur 0 -- -- 74
2019-06-21 09:00:00 20.8 5 Sur 9 Sur 0 -- -- 83
2019-06-21 08:00:00 18.2 3 Sur 10 Sudeste 0 -- -- 94
2019-06-21 07:00:00 17.3 5 Sudeste 13 Sur 0 -- -- 93
2019-06-21 06:00:00 16.1 3 Nordeste 9 Norte 0 -- -- 95
2019-06-21 05:00:00 15.9 0 Calma 6 Este 0 -- -- 92
2019-06-21 04:00:00 16.3 0 Calma 9 Norte 0 -- -- 90
2019-06-21 03:00:00 17.8 5 Norte 17 Noroeste 0 -- -- 88
2019-06-21 02:00:00 17.8 5 Noroeste 12 Noroeste 0 -- -- 85
2019-06-21 01:00:00 19 6 Noroeste 14 Noroeste 0 -- -- 85
2019-06-21 00:00:00 19.8 4 Noroeste 14 Oeste 0 -- -- 78
2019-06-20 23:00:00 20.7 6 Oeste 21 Noroeste 0 -- -- 72
2019-06-20 22:00:00 22.2 13 Oeste 24 Oeste 0 -- -- 65
2019-06-20 21:00:00 24.7 12 Oeste 32 Oeste 0 -- -- 56
2019-06-20 20:00:00 25.6 19 Oeste 35 Oeste 0 -- -- 50
2019-06-20 19:00:00 26.6 18 Oeste 40 Oeste 0 -- -- 48
2019-06-20 18:00:00 26.7 18 Oeste 40 Oeste 0 -- -- 48
2019-06-20 17:00:00 25.8 21 Oeste 46 Oeste 0 -- -- 52
2019-06-20 16:00:00 25.4 23 Oeste 51 Oeste 0 -- -- 55
2019-06-20 15:00:00 25.1 21 Oeste 47 Oeste 0 -- -- 58
2019-06-20 14:00:00 24 23 Oeste 50 Oeste 0 -- -- 63
2019-06-20 13:00:00 22.9 21 Oeste 37 Oeste 0 -- -- 70
2019-06-20 12:00:00 23.2 15 Oeste 31 Oeste 0 -- -- 71
2019-06-20 11:00:00 22.6 15 Oeste 33 Oeste 0 -- -- 73
2019-06-20 10:00:00 22 14 Oeste 26 Oeste 0 -- -- 76
2019-06-20 09:00:00 21.5 9 Oeste 16 Oeste 0 -- -- 81
2019-06-20 08:00:00 19.3 5 Noroeste 12 Noroeste 0 -- -- 90
2019-06-20 07:00:00 18.6 4 Noroeste 13 Oeste 0 -- -- 90
2019-06-20 06:00:00 17.8 6 Noroeste 13 Norte 0 -- -- 94
2019-06-20 05:00:00 17.7 7 Norte 11 Noroeste 0 -- -- 96
2019-06-20 04:00:00 17.7 5 Sudoeste 9 Sudoeste 0 -- -- 94
2019-06-20 03:00:00 16.6 0 Calma 8 Nordeste 0 -- -- 92
2019-06-20 02:00:00 16.9 3 Norte 5 Norte 0 -- -- 90
2019-06-20 01:00:00 17.5 3 Norte 7 Norte 0 -- -- 88
2019-06-20 00:00:00 18.6 3 Nordeste 8 Nordeste 0 -- -- 86
2019-06-19 23:00:00 20.2 3 Este 6 Nordeste 0 -- -- 80
2019-06-19 22:00:00 22.5 0 Calma 6 Noroeste 0 -- -- 74
2019-06-19 21:00:00 25.5 4 Noroeste 18 Noroeste 0 -- -- 61
2019-06-19 20:00:00 25.8 11 Oeste 28 Oeste 0 -- -- 57
2019-06-19 19:00:00 26 14 Oeste 35 Oeste 0 -- -- 55
2019-06-19 18:00:00 25.6 20 Oeste 39 Oeste 0 -- -- 57
2019-06-19 17:00:00 25.7 19 Oeste 39 Oeste 0 -- -- 54
2019-06-19 16:00:00 24.9 16 Oeste 33 Oeste 0 -- -- 59
2019-06-19 15:00:00 24.2 16 Oeste -- -- -- -- -- 64
2019-06-19 14:00:00 -- -- -- -- -- -- -- -- --
2019-06-19 13:00:00 -- -- -- -- -- -- -- -- --
2019-06-19 12:00:00 -- -- -- -- -- -- -- -- --
2019-06-19 11:00:00 -- -- -- -- -- -- -- -- --
2019-06-19 10:00:00 -- -- -- -- -- -- -- -- --
2019-06-19 09:00:00 -- -- -- -- -- -- -- -- --
2019-06-19 08:00:00 -- -- -- -- -- -- -- -- --
2019-06-19 07:00:00 -- -- -- -- -- -- -- -- --
2019-06-19 06:00:00 -- -- -- -- -- -- -- -- --
2019-06-19 05:00:00 -- -- -- -- -- -- -- -- --
2019-06-19 04:00:00 -- -- -- -- -- -- -- -- --
2019-06-19 03:00:00 -- -- -- -- -- -- -- -- --
2019-06-19 02:00:00 -- -- -- -- -- -- -- -- --
2019-06-19 01:00:00 -- -- -- -- -- -- -- -- --
2019-06-19 00:00:00 -- -- -- -- -- -- -- -- --
2019-06-18 23:00:00 -- -- -- -- -- -- -- -- --
2019-06-18 22:00:00 -- -- -- -- -- -- -- -- --
2019-06-18 21:00:00 -- -- -- -- -- -- -- -- --
2019-06-18 20:00:00 -- -- -- -- -- -- -- -- --
2019-06-18 19:00:00 23.5 17 Oeste 31 Oeste 0 -- -- 52
2019-06-18 18:00:00 23.8 14 Oeste 26 Sudoeste 0 -- -- 60
2019-06-18 17:00:00 23.4 13 Oeste 24 Sudoeste 0 -- -- 67
2019-06-18 16:00:00 22.6 14 Sudoeste 26 Oeste 0 -- -- 78
2019-06-18 15:00:00 22.7 14 Sudoeste 23 Sudoeste 0 -- -- 76
2019-06-18 14:00:00 22.8 11 Sudoeste 20 Sudoeste 0 -- -- 74
2019-06-18 13:00:00 22.6 10 Sudoeste 17 Sudoeste 0 -- -- 71
2019-06-18 12:00:00 21.5 12 Sudoeste 23 Sudoeste 0 -- -- 78
2019-06-18 11:00:00 21.6 10 Sudoeste 18 Sudoeste 0 -- -- 77
2019-06-18 10:00:00 21.3 9 Oeste 21 Oeste 0 -- -- 78
2019-06-18 09:00:00 20.7 0 Calma 8 Oeste 0 -- -- 67
2019-06-18 08:00:00 15.4 0 Calma 9 Norte 0 -- -- 81
2019-06-18 07:00:00 15 7 Norte 9 Norte 0 -- -- 77
2019-06-18 06:00:00 17.2 7 Nordeste 15 Nordeste 0 -- -- 69
2019-06-18 05:00:00 17.4 9 Nordeste 15 Nordeste 0 -- -- 68
2019-06-18 04:00:00 17.4 9 Nordeste 13 Nordeste 0 -- -- 74
2019-06-18 03:00:00 17.2 7 Nordeste 13 Nordeste 0 -- -- 75
2019-06-18 02:00:00 17.4 8 Nordeste 13 Nordeste 0 -- -- 80
2019-06-18 01:00:00 16.2 7 Norte 10 Norte 0 -- -- 87
2019-06-18 00:00:00 17.3 2 Nordeste 8 Nordeste 0 -- -- 85
2019-06-17 23:00:00 18.3 4 Nordeste 6 Nordeste 0 -- -- 86
2019-06-17 22:00:00 20.2 0 Calma 7 Noroeste 0 -- -- 81
2019-06-17 21:00:00 22.3 3 Sudoeste 20 Oeste 0 -- -- 75
2019-06-17 20:00:00 22.4 10 Sudoeste 15 Sudoeste 0 -- -- 76
2019-06-17 19:00:00 23.1 10 Sudoeste 20 Sudoeste 0 -- -- 74
2019-06-17 18:00:00 23.7 9 Sudoeste 19 Sudoeste 0 -- -- 70
2019-06-17 17:00:00 24 10 Sudoeste 17 Oeste 0 -- -- 69
2019-06-17 16:00:00 23.4 12 Oeste 22 Oeste 0 -- -- 72
2019-06-17 15:00:00 22.4 15 Sudoeste 22 Oeste 0 -- -- 75
2019-06-17 14:00:00 22.8 13 Oeste 21 Oeste 0 -- -- 70
2019-06-17 13:00:00 23.1 10 Oeste 17 Oeste 0 -- -- 67
2019-06-17 12:00:00 22.3 12 Sudoeste 17 Sudoeste 0 -- -- 66
2019-06-17 11:00:00 22.3 10 Sudoeste 15 Oeste 0 -- -- 68
2019-06-17 10:00:00 22.1 4 Sudoeste 12 Sur 0 -- -- 68
2019-06-17 09:00:00 20.4 2 Nordeste 8 Nordeste 0 -- -- 66
2019-06-17 08:00:00 15.7 6 Nordeste 12 Nordeste 0 -- -- 78
2019-06-17 07:00:00 14.2 6 Nordeste 9 Nordeste 0 -- -- 82
2019-06-17 06:00:00 14.4 8 Norte 10 Norte 0 -- -- 81
2019-06-17 05:00:00 14.2 5 Norte 9 Norte 0 -- -- 83
2019-06-17 04:00:00 15 6 Nordeste 10 Norte 0 -- -- 79
2019-06-17 03:00:00 15.5 6 Nordeste 9 Norte 0 -- -- 78
2019-06-17 02:00:00 15.7 5 Nordeste 8 Norte 0 -- -- 81
2019-06-17 01:00:00 16.3 5 Nordeste 8 Nordeste 0 -- -- 80
2019-06-17 00:00:00 17.2 7 Norte 9 Norte 0 -- -- 77
2019-06-16 23:00:00 18.3 8 Norte 9 Norte 0 -- -- 76
2019-06-16 22:00:00 20.6 3 Noroeste 9 Oeste 0 -- -- 71
2019-06-16 21:00:00 22.8 5 Oeste 14 Oeste 0 -- -- 61
2019-06-16 20:00:00 23.1 8 Oeste 21 Oeste 0 -- -- 62
2019-06-16 19:00:00 23.7 10 Sudoeste 19 Sudoeste 0 -- -- 63
2019-06-16 18:00:00 23.8 10 Oeste 21 Oeste 0 -- -- 63
2019-06-16 17:00:00 23.9 8 Oeste 22 Oeste 0 -- -- 66
2019-06-16 16:00:00 23.2 12 Sudoeste 22 Sudoeste 0 -- -- 70
2019-06-16 15:00:00 23.6 7 Sudoeste 17 Sudoeste 0 -- -- 64
2019-06-16 14:00:00 22.7 5 Sudeste 18 Oeste 0 -- -- 71
2019-06-16 13:00:00 21.2 9 Sudoeste 21 Sudoeste 0 -- -- 75
2019-06-16 12:00:00 21.3 10 Sudoeste 17 Sudoeste 0 -- -- 70
2019-06-16 11:00:00 21.2 6 Oeste 14 Sudoeste 0 -- -- 73
2019-06-16 10:00:00 20.9 6 Sudoeste 11 Sur 0 -- -- 70
2019-06-16 09:00:00 19.3 4 Sur 7 Sur 0 -- -- 73
2019-06-16 08:00:00 14.6 3 Nordeste 7 Norte 0 -- -- 87
2019-06-16 07:00:00 13 5 Norte 8 Nordeste 0 -- -- 90
2019-06-16 06:00:00 13.5 7 Nordeste 11 Nordeste 0 -- -- 89
2019-06-16 05:00:00 13.9 5 Nordeste 8 Norte 0 -- -- 91
2019-06-16 04:00:00 13.5 3 Noroeste 8 Norte 0 -- -- 88
2019-06-16 03:00:00 13.8 5 Norte 6 Norte 0 -- -- 87
2019-06-16 02:00:00 14.9 6 Norte 9 Norte 0 -- -- 86
2019-06-16 01:00:00 15.5 5 Nordeste 8 Norte 0 -- -- 86
2019-06-16 00:00:00 16.4 4 Nordeste 5 Este 0 -- -- 85
2019-06-15 23:00:00 17.8 0 Calma 7 Noroeste 0 -- -- 80
2019-06-15 22:00:00 19 2 Nordeste 5 Norte 0 -- -- 75
2019-06-15 21:00:00 21.3 2 Norte 10 Sudoeste 0 -- -- 65
2019-06-15 20:00:00 21.7 8 Sudoeste 16 Sur 0 -- -- 62
2019-06-15 19:00:00 22.6 10 Sudoeste 20 Oeste 0 -- -- 57
2019-06-15 18:00:00 22.7 10 Sudoeste 19 Sudoeste 0 -- -- 54
2019-06-15 17:00:00 22.2 12 Sudoeste 21 Sudoeste 0 -- -- 56
2019-06-15 16:00:00 22.2 11 Sudoeste 21 Sudoeste 0 -- -- 62
2019-06-15 15:00:00 22.3 10 Sudoeste 24 Sur 0 -- -- 61
2019-06-15 14:00:00 21.8 15 Sudoeste 26 Sudoeste 0 -- -- 64
2019-06-15 13:00:00 22.6 13 Oeste 29 Sudoeste 0 -- -- 57
2019-06-15 12:00:00 23.2 14 Oeste 25 Oeste 0 -- -- 48
2019-06-15 11:00:00 23.4 11 Oeste 19 Oeste 0 -- -- 46
2019-06-15 10:00:00 22.6 7 Oeste 20 Nordeste 0 -- -- 51
2019-06-15 09:00:00 21.3 11 Norte 23 Norte 0 -- -- 49
2019-06-15 08:00:00 18.2 10 Norte 22 Norte 0 -- -- 57
2019-06-15 07:00:00 15.6 10 Norte 21 Norte 0 -- -- 69
2019-06-15 06:00:00 13.9 5 Norte 14 Norte 0 -- -- 93
2019-06-15 05:00:00 12.9 6 Norte 9 Norte 0 -- -- 94
2019-06-15 04:00:00 12.8 3 Noroeste 8 Noroeste 0 -- -- 92
2019-06-15 03:00:00 13 4 Norte 7 Norte 0 -- -- 91
2019-06-15 02:00:00 13.6 4 Norte 6 Norte 0 -- -- 90
2019-06-15 01:00:00 14.3 0 Calma 8 Norte 0 -- -- 87
2019-06-15 00:00:00 15.3 4 Norte 5 Norte 0 -- -- 84
2019-06-14 23:00:00 16.7 3 Norte 16 Oeste 0 -- -- 78
2019-06-14 22:00:00 19 11 Oeste 23 Oeste 0 -- -- 71
2019-06-14 21:00:00 20.8 10 Oeste 26 Oeste 0 -- -- 60
2019-06-14 20:00:00 21.6 13 Oeste 34 Oeste 0 -- -- 52
2019-06-14 19:00:00 21.7 20 Oeste 42 Oeste 0 -- -- 53
2019-06-14 18:00:00 21.6 25 Oeste 51 Oeste 0 -- -- 55
2019-06-14 17:00:00 21.5 27 Oeste 52 Oeste 0 -- -- 59
2019-06-14 16:00:00 21.3 25 Oeste 49 Oeste 0 -- -- 63
2019-06-14 15:00:00 21.3 21 Oeste 43 Oeste 0 -- -- 63
2019-06-14 14:00:00 21.1 23 Oeste 45 Oeste 0 -- -- 66
2019-06-14 13:00:00 21 23 Oeste 45 Oeste 0 -- -- 64
2019-06-14 12:00:00 20.6 23 Oeste 47 Noroeste 0 -- -- 60
2019-06-14 11:00:00 20.2 27 Oeste 49 Oeste 0 -- -- 62
2019-06-14 10:00:00 19.6 23 Oeste 51 Oeste 0 -- -- 67
2019-06-14 09:00:00 19 22 Oeste 42 Oeste 0 -- -- 73
2019-06-14 08:00:00 19.2 15 Oeste 29 Oeste 0 -- -- 84
2019-06-14 07:00:00 19.1 8 Oeste 35 Oeste 0 -- -- 88
2019-06-14 06:00:00 19.4 15 Oeste 35 Oeste 0 -- -- 88
2019-06-14 05:00:00 20.4 10 Oeste 23 Oeste 0 -- -- 78
2019-06-14 04:00:00 20.8 11 Oeste 23 Oeste 0 -- -- 75
2019-06-14 03:00:00 20.6 3 Noroeste 13 Noroeste 0 -- -- 79
2019-06-14 02:00:00 20.3 6 Oeste 17 Oeste 0 -- -- 81
2019-06-14 01:00:00 20.7 9 Oeste 21 Oeste 0 -- -- 77
2019-06-14 00:00:00 21.2 6 Sudoeste 12 Oeste 0 -- -- 73
2019-06-13 23:00:00 21.3 3 Noroeste 10 Oeste 0 -- -- 74
2019-06-13 22:00:00 21.7 5 Sudoeste 9 Sudoeste 0 -- -- 71
2019-06-13 21:00:00 22 5 Sur 9 Sudoeste 0 -- -- 69
2019-06-13 20:00:00 22.3 3 Oeste 11 Sur 0 -- -- 68
2019-06-13 19:00:00 22.6 5 Oeste 16 Sudoeste 0 -- -- 67
2019-06-13 18:00:00 23 8 Oeste 19 Noroeste 0 -- -- 67
2019-06-13 17:00:00 22.7 10 Oeste 22 Oeste 0 -- -- 68
2019-06-13 16:00:00 23.6 12 Oeste 24 Sudoeste 0 -- -- 65
2019-06-13 15:00:00 23.4 13 Oeste 28 Sudoeste 0 -- -- 65
2019-06-13 14:00:00 23.3 14 Oeste 27 Sudoeste 0 -- -- 64
2019-06-13 13:00:00 23.3 14 Oeste 31 Oeste 0 -- -- 65
2019-06-13 12:00:00 22.6 15 Oeste 33 Oeste 0 -- -- 66
2019-06-13 11:00:00 22.1 10 Oeste 20 Oeste 0 -- -- 68
2019-06-13 10:00:00 21.3 6 Sudoeste 13 Oeste 0 -- -- 71
2019-06-13 09:00:00 19 0 Calma 5 Nordeste 0 -- -- 83
2019-06-13 08:00:00 17 5 Nordeste 10 Norte 0 -- -- 94
2019-06-13 07:00:00 15.6 2 Norte 9 Noroeste 0 -- -- 91
2019-06-13 06:00:00 16.6 4 Norte 11 Noroeste 0 -- -- 91
2019-06-13 05:00:00 15.8 6 Norte 8 Norte 0 -- -- 93
2019-06-13 04:00:00 16.1 5 Norte 8 Norte 0 -- -- 92
2019-06-13 03:00:00 16.6 0 Calma 7 Noroeste 0 -- -- 91
2019-06-13 02:00:00 17.2 3 Nordeste 6 Nordeste 0 -- -- 89
2019-06-13 01:00:00 18.7 4 Noroeste 8 Sur 0 -- -- 86
2019-06-13 00:00:00 18.9 3 Nordeste 6 Norte 0 -- -- 87
2019-06-12 23:00:00 18.9 4 Norte 15 Sudoeste 0 -- -- 85
2019-06-12 22:00:00 19.3 10 Sudoeste 19 Sudoeste 0 -- -- 85
2019-06-12 21:00:00 19.9 9 Sudoeste 18 Sudoeste 0 -- -- 80
2019-06-12 20:00:00 21.7 8 Sudoeste 19 Oeste 0 -- -- 70
2019-06-12 19:00:00 22.3 10 Oeste 24 Sudoeste 0 -- -- 68
2019-06-12 18:00:00 23.1 19 Sur 31 Sur 0 -- -- 66
2019-06-12 17:00:00 23.4 20 Sur 35 Sur 0 -- -- 63
2019-06-12 16:00:00 24.2 21 Sur 33 Sur 0 -- -- 60
2019-06-12 15:00:00 24.1 23 Sur 35 Sudoeste 0 -- -- 58
2019-06-12 14:00:00 24.2 23 Sur 35 Sur 0 -- -- 56
2019-06-12 13:00:00 24.4 23 Sur 31 Sur 0 -- -- 54
2019-06-12 12:00:00 24 22 Sur 35 Sur 0 -- -- 53
2019-06-12 11:00:00 24 14 Sudeste 26 Sur 0 -- -- 52
2019-06-12 10:00:00 21.7 3 Noroeste 13 Oeste 0 -- -- 66
2019-06-12 09:00:00 19.9 4 Oeste 10 Oeste 0 -- -- 76
2019-06-12 08:00:00 17.7 3 Norte 8 Nordeste 0 -- -- 92
2019-06-12 07:00:00 16.2 0 Calma 6 Nordeste 0 -- -- 90
2019-06-12 06:00:00 16.7 0 Calma 10 Este 0 -- -- 89
2019-06-12 05:00:00 17.9 2 Sur 11 Sudeste 0 -- -- 81
2019-06-12 04:00:00 19.3 6 Sudeste 25 Sudeste 0 -- -- 79
2019-06-12 03:00:00 19.7 13 Sudeste 35 Sudeste 0 -- -- 79
2019-06-12 02:00:00 20 15 Sur 35 Este 0 -- -- 80
2019-06-12 01:00:00 19.4 7 Este 29 Sur 0 -- -- 74
2019-06-12 00:00:00 17.8 17 Sudeste 32 Sur 0 -- -- 84
2019-06-11 23:00:00 19 12 Noroeste 31 Oeste 0 -- -- 76
2019-06-11 22:00:00 19.6 11 Sudoeste 21 Sur 0 -- -- 70
2019-06-11 21:00:00 21.9 5 Sudeste 44 Oeste 0 -- -- 57
2019-06-11 20:00:00 21.9 17 Oeste 45 Oeste 0 -- -- 58
2019-06-11 19:00:00 21.9 28 Oeste 61 Oeste 0 -- -- 57
2019-06-11 18:00:00 25.7 27 Oeste 49 Oeste 0 -- -- 40
2019-06-11 17:00:00 27.7 29 Oeste 53 Noroeste 0 -- -- 30
2019-06-11 16:00:00 25.7 22 Oeste 55 Oeste 0 -- -- 40
2019-06-11 15:00:00 22.8 21 Oeste 52 Oeste 0 -- -- 52
2019-06-11 14:00:00 22.3 29 Oeste 46 Sudoeste 0 -- -- 51
2019-06-11 13:00:00 22.6 27 Oeste 46 Oeste 0 -- -- 48
2019-06-11 12:00:00 22.3 27 Oeste 46 Oeste 0 -- -- 54
2019-06-11 11:00:00 22.1 8 Sudoeste 23 Sudoeste 0 -- -- 62
2019-06-11 10:00:00 23.5 9 Sudoeste 17 Sudoeste 0 -- -- 52
2019-06-11 09:00:00 21.6 4 Oeste 29 Nordeste 0 -- -- 65
2019-06-11 08:00:00 19.7 15 Nordeste 27 Nordeste 0 -- -- 55
2019-06-11 07:00:00 15.4 6 Noroeste 12 Nordeste 0 -- -- 84
2019-06-11 06:00:00 14.1 8 Nordeste 17 Nordeste 0 -- -- 90
2019-06-11 05:00:00 13.9 0 Calma 6 Nordeste 0 -- -- 93
2019-06-11 04:00:00 14.2 3 Nordeste 8 Nordeste 0 -- -- 93
2019-06-11 03:00:00 14.3 3 Norte 8 Norte 0 -- -- 92
2019-06-11 02:00:00 15.1 2 Nordeste 5 Sudeste 0 -- -- 88
2019-06-11 01:00:00 17.1 3 Oeste 13 Sudeste 0 -- -- 84
2019-06-11 00:00:00 17.5 3 Sudeste 11 Oeste 0 -- -- 83
2019-06-10 23:00:00 18.6 3 Oeste 12 Oeste 0 -- -- 78
2019-06-10 22:00:00 20.2 4 Oeste 8 Sudoeste 0 -- -- 64
2019-06-10 21:00:00 23.1 6 Sudoeste 20 Noroeste 0 -- -- 49
2019-06-10 20:00:00 23.1 12 Oeste 32 Oeste 0 -- -- 50
2019-06-10 19:00:00 24.1 16 Oeste 44 Oeste 0 -- -- 44
2019-06-10 18:00:00 24.4 18 Oeste 38 Noroeste 0 -- -- 43
2019-06-10 17:00:00 24.2 19 Oeste 43 Oeste 0 -- -- 43
2019-06-10 16:00:00 23.1 24 Oeste 48 Oeste 0 -- -- 49
2019-06-10 15:00:00 22.8 26 Oeste 49 Oeste 0 -- -- 52
2019-06-10 14:00:00 22.7 26 Oeste 51 Oeste 0 -- -- 49
2019-06-10 13:00:00 22.8 22 Oeste 40 Oeste 0 -- -- 47
2019-06-10 12:00:00 22 20 Oeste 40 Oeste 0 -- -- 58
2019-06-10 11:00:00 22.3 18 Oeste 28 Oeste 0 -- -- 54
2019-06-10 10:00:00 24.6 6 Oeste 27 Nordeste 0 -- -- 39
2019-06-10 09:00:00 24.4 14 Nordeste 33 Nordeste 0 -- -- 32
2019-06-10 08:00:00 23.4 18 Nordeste 33 Nordeste 0 -- -- 31
2019-06-10 07:00:00 22.4 14 Nordeste 28 Noroeste 0 -- -- 31
2019-06-10 06:00:00 22.7 12 Norte 37 Noroeste 0 -- -- 31
2019-06-10 05:00:00 23.4 12 Norte 37 Noroeste 0 -- -- 29
2019-06-10 04:00:00 24 23 Norte 41 Norte 0 -- -- 28
2019-06-10 03:00:00 23.2 21 Norte 35 Norte 0 -- -- 31
2019-06-10 02:00:00 18.3 7 Sudeste 17 Sur 0 -- -- 79
2019-06-10 01:00:00 17.2 7 Sur 17 Sudeste 0 -- -- 85
2019-06-10 00:00:00 16.7 5 Este 9 Nordeste 0 -- -- 84
2019-06-09 23:00:00 18 4 Norte 6 Norte 0 -- -- 79
2019-06-09 22:00:00 20.9 2 Sudeste 9 Oeste 0 -- -- 67
2019-06-09 21:00:00 22.8 9 Oeste 27 Oeste 0 -- -- 60
2019-06-09 20:00:00 23 18 Oeste 37 Oeste 0 -- -- 58
2019-06-09 19:00:00 23.7 17 Oeste 36 Oeste 0 -- -- 53
2019-06-09 18:00:00 23.2 19 Oeste 37 Oeste 0 -- -- 61
2019-06-09 17:00:00 23.5 15 Oeste 40 Noroeste 0 -- -- 64
2019-06-09 16:00:00 22.4 19 Oeste 46 Oeste 0 -- -- 73
2019-06-09 15:00:00 21.5 23 Sudoeste 48 Sudoeste 0 -- -- 82
2019-06-09 14:00:00 23.2 11 Oeste 29 Noroeste 0 -- -- 76
2019-06-09 13:00:00 22.7 15 Oeste 31 Sudoeste 0 -- -- 77
2019-06-09 12:00:00 22 13 Oeste 28 Oeste 0 -- -- 78
2019-06-09 11:00:00 22.2 14 Oeste 26 Sudoeste 0 -- -- 76
2019-06-09 10:00:00 21.7 12 Sudoeste 18 Sudoeste 0 -- -- 78
2019-06-09 09:00:00 21.1 4 Sudoeste 12 Oeste 0 -- -- 76
2019-06-09 08:00:00 20.3 5 Noroeste 12 Noroeste 0 -- -- 81
2019-06-09 07:00:00 20.1 2 Noroeste 8 Oeste 0 -- -- 85
2019-06-09 06:00:00 20.2 4 Noroeste 8 Oeste 0 -- -- 87
2019-06-09 05:00:00 20.4 3 Oeste 12 Oeste 0 -- -- 86
2019-06-09 04:00:00 20.6 6 Oeste 13 Oeste 0 -- -- 85
2019-06-09 03:00:00 20.6 5 Oeste 10 Oeste 0 -- -- 85
2019-06-09 02:00:00 20.7 5 Sudoeste 10 Oeste 0 -- -- 85
2019-06-09 01:00:00 20.9 6 Oeste 12 Oeste 0 -- -- 83
2019-06-09 00:00:00 21.1 5 Oeste 12 Oeste 0 -- -- 82
2019-06-08 23:00:00 21.2 4 Sudoeste 12 Oeste 0 -- -- 81
2019-06-08 22:00:00 21.3 8 Sudoeste 14 Oeste 0 -- -- 80
2019-06-08 21:00:00 21.8 6 Sudoeste 19 Sur 0 -- -- 78
2019-06-08 20:00:00 22.5 15 Sur 23 Sur 0 -- -- 75
2019-06-08 19:00:00 23.3 14 Sur 26 Sudoeste 0 -- -- 73
2019-06-08 18:00:00 23.7 14 Sudoeste 30 Sur 0 -- -- 69
2019-06-08 17:00:00 24.1 13 Sur 24 Sur 0 -- -- 67
2019-06-08 16:00:00 23.8 8 Sur 21 Sudoeste 0 -- -- 67
2019-06-08 15:00:00 23.7 5 Oeste 27 Sudoeste 0 -- -- 71
2019-06-08 14:00:00 23.4 6 Noroeste 25 Sur 0 -- -- 71
2019-06-08 13:00:00 22.5 10 Sudoeste 27 Sur 0 -- -- 73
2019-06-08 12:00:00 22.2 11 Sudoeste 24 Sudoeste 0 -- -- 73
2019-06-08 11:00:00 23 15 Sur 25 Sur 0 -- -- 65
2019-06-08 10:00:00 22 9 Sur 16 Sur 0 -- -- 69
2019-06-08 09:00:00 20 2 Sur 10 Norte 0 -- -- 68
2019-06-08 08:00:00 16.1 4 Norte 10 Norte 0 -- -- 84
2019-06-08 07:00:00 14.9 7 Norte 10 Nordeste 0 -- -- 87
2019-06-08 06:00:00 15.2 5 Nordeste 10 Nordeste 0 -- -- 88
2019-06-08 05:00:00 15.9 6 Nordeste 9 Nordeste 0 -- -- 88
2019-06-08 04:00:00 16.1 4 Norte 13 Norte 0 -- -- 88
2019-06-08 03:00:00 15.8 6 Norte 8 Norte 0 -- -- 90
2019-06-08 02:00:00 16.3 4 Este 8 Norte 0 -- -- 89
2019-06-08 01:00:00 17.2 2 Este 10 Sudoeste 0 -- -- 83
2019-06-08 00:00:00 17.5 4 Sur 6 Sur 0 -- -- 81
2019-06-07 23:00:00 18.2 4 Noroeste 7 Nordeste 0 -- -- 76
2019-06-07 22:00:00 19.9 4 Norte 8 Noroeste 0 -- -- 67
2019-06-07 21:00:00 22.3 6 Noroeste 26 Oeste 0 -- -- 56
2019-06-07 20:00:00 22.3 16 Oeste 35 Oeste 0 -- -- 55
2019-06-07 19:00:00 22.4 21 Oeste 37 Oeste 0 -- -- 55
2019-06-07 18:00:00 23.2 19 Oeste 41 Oeste 0 -- -- 54
2019-06-07 17:00:00 22.6 15 Oeste 32 Sudoeste 0 -- -- 61
2019-06-07 16:00:00 22.2 19 Sudoeste 44 Sudoeste 0 -- -- 66
2019-06-07 15:00:00 22.2 26 Sudoeste 48 Sudoeste 0 -- -- 61
2019-06-07 14:00:00 22 20 Oeste 43 Sudoeste 0 -- -- 63
2019-06-07 13:00:00 22.2 19 Oeste 39 Oeste 0 -- -- 63
2019-06-07 12:00:00 22.2 22 Oeste 37 Oeste 0 -- -- 61
2019-06-07 11:00:00 22.8 17 Oeste 30 Oeste 0 -- -- 49
2019-06-07 10:00:00 22.3 8 Sudoeste 19 Oeste 0 -- -- 46
2019-06-07 09:00:00 22.7 8 Norte 19 Nordeste 0 -- -- 49
2019-06-07 08:00:00 15 3 Este 10 Noroeste 0 -- -- 75
2019-06-07 07:00:00 12.1 5 Norte 10 Norte 0 -- -- 81
2019-06-07 06:00:00 12.3 3 Oeste 8 Norte 0 -- -- 79
2019-06-07 05:00:00 13 6 Nordeste 9 Noroeste 0 -- -- 82
2019-06-07 04:00:00 11.9 4 Norte 7 Norte 0 -- -- 83
2019-06-07 03:00:00 12.7 4 Nordeste 8 Norte 0 -- -- 75
2019-06-07 02:00:00 13.5 5 Norte 8 Norte 0 -- -- 68
2019-06-07 01:00:00 14.4 3 Norte 7 Norte 0 -- -- 66
2019-06-07 00:00:00 15 3 Nordeste 8 Norte 0 -- -- 66
2019-06-06 23:00:00 16.4 4 Norte 8 Norte 0 -- -- 60
2019-06-06 22:00:00 19.1 4 Este 16 Oeste 0 -- -- 50
2019-06-06 21:00:00 22 10 Oeste 27 Oeste 0 -- -- 37
2019-06-06 20:00:00 23 15 Oeste 35 Oeste 0 -- -- 33
2019-06-06 19:00:00 23.3 14 Oeste 32 Oeste 0 -- -- 35
2019-06-06 18:00:00 24.4 14 Oeste 27 Sudoeste 0 -- -- 30
2019-06-06 17:00:00 23.3 14 Oeste 27 Sudoeste 0 -- -- 36
2019-06-06 16:00:00 22.8 16 Oeste 30 Oeste 0 -- -- 44
2019-06-06 15:00:00 21.9 15 Sudoeste 27 Oeste 0 -- -- 63
2019-06-06 14:00:00 22.2 14 Sudoeste 23 Oeste 0 -- -- 58
2019-06-06 13:00:00 24.1 8 Sudoeste 19 Sur 0 -- -- 37
2019-06-06 12:00:00 22.5 12 Sudoeste 18 Oeste 0 -- -- 39
2019-06-06 11:00:00 22.9 9 Sudoeste 14 Sudoeste 0 -- -- 44
2019-06-06 10:00:00 24.1 5 Sudeste 26 Nordeste 0 -- -- 33
2019-06-06 09:00:00 21.5 15 Nordeste 27 Nordeste 0 -- -- 34
2019-06-06 08:00:00 17.9 6 Nordeste 15 Nordeste 0 -- -- 43
2019-06-06 07:00:00 16.5 8 Norte 16 Nordeste 0 -- -- 41
2019-06-06 06:00:00 14.5 4 Norte 14 Nordeste 0 -- -- 65
2019-06-06 05:00:00 15.6 8 Norte 17 Nordeste 0 -- -- 44
2019-06-06 04:00:00 15.5 10 Nordeste 16 Nordeste 0 -- -- 46
2019-06-06 03:00:00 15.3 4 Norte 8 Norte 0 -- -- 63
2019-06-06 02:00:00 16.8 3 Sudoeste 16 Norte 0 -- -- 56
2019-06-06 01:00:00 17.4 6 Noroeste 11 Noroeste 0 -- -- 49
2019-06-06 00:00:00 19.9 3 Oeste 18 Oeste 0 -- -- 51
2019-06-05 23:00:00 20.1 11 Oeste 26 Oeste 0 -- -- 64
2019-06-05 22:00:00 20.5 17 Oeste 35 Noroeste 0 -- -- 60
2019-06-05 21:00:00 20.9 17 Oeste 45 Oeste 0 -- -- 58
2019-06-05 20:00:00 21.4 26 Oeste 53 Oeste 0 -- -- 54
2019-06-05 19:00:00 21.9 23 Oeste 46 Sudoeste 0 -- -- 52
2019-06-05 18:00:00 22 29 Oeste 57 Oeste 0 -- -- 51
2019-06-05 17:00:00 23.1 30 Oeste 50 Oeste 0 -- -- 42
2019-06-05 16:00:00 23.1 30 Oeste 51 Oeste 0 -- -- 41
2019-06-05 15:00:00 23.8 33 Oeste 58 Noroeste 0 -- -- 39
2019-06-05 14:00:00 23.3 23 Oeste 44 Oeste 0 -- -- 42
2019-06-05 13:00:00 23.6 26 Oeste 46 Oeste 0 -- -- 32
2019-06-05 12:00:00 25.2 18 Noroeste 42 Noroeste 0 -- -- 18
2019-06-05 11:00:00 24 22 Noroeste 49 Noroeste 0 -- -- 21
2019-06-05 10:00:00 22.8 25 Norte 44 Norte 0 -- -- 28
2019-06-05 09:00:00 22.3 21 Norte 38 Norte 0 -- -- 44
2019-06-05 08:00:00 21.6 16 Norte 40 Norte 0 -- -- 50
2019-06-05 07:00:00 21.9 21 Norte 36 Norte 0 -- -- 54
2019-06-05 06:00:00 18.7 13 Noroeste 26 Noroeste 0 -- -- 76
2019-06-05 05:00:00 16.5 4 Noroeste 9 Nordeste 0 -- -- 91
2019-06-05 04:00:00 17.1 5 Noroeste 9 Norte 0 -- -- 90
2019-06-05 03:00:00 17.7 5 Nordeste 12 Sur 0 -- -- 88
2019-06-05 02:00:00 19.2 4 Sudeste 13 Oeste 0 -- -- 83
2019-06-05 01:00:00 21.6 11 Oeste 27 Oeste 0 -- -- 76
2019-06-05 00:00:00 18.8 5 Noroeste 9 Oeste 0 -- -- 85
2019-06-04 23:00:00 19.6 3 Norte 6 Este 0 -- -- 82
2019-06-04 22:00:00 21.1 3 Nordeste 15 Sudoeste 0 -- -- 74
2019-06-04 21:00:00 22.7 7 Sur 18 Sudoeste 0 -- -- 66
2019-06-04 20:00:00 23.7 11 Sur 18 Sudoeste 0 -- -- 64
2019-06-04 19:00:00 24 11 Sudoeste 18 Sudoeste 0 -- -- 56
2019-06-04 18:00:00 24.2 10 Sudoeste 19 Sudoeste 0 -- -- 51
2019-06-04 17:00:00 24.6 11 Sudoeste 17 Sudoeste 0 -- -- 48
2019-06-04 16:00:00 24.4 10 Sudoeste 23 Sudoeste 0 -- -- 40
2019-06-04 15:00:00 23.2 14 Sudoeste 27 Sudoeste 0 -- -- 62
2019-06-04 14:00:00 22.6 14 Sudoeste 23 Sudoeste 0 -- -- 71
2019-06-04 13:00:00 22.5 16 Oeste 25 Sudoeste 0 -- -- 74
2019-06-04 12:00:00 23.2 9 Sudoeste 16 Oeste 0 -- -- 54
2019-06-04 11:00:00 23.1 9 Oeste 20 Oeste 0 -- -- 53
2019-06-04 10:00:00 23.3 4 Sur 8 Sudeste 0 -- -- 42
2019-06-04 09:00:00 20.1 4 Nordeste 10 Nordeste 0 -- -- 57
2019-06-04 08:00:00 14.4 4 Norte 10 Nordeste 0 -- -- 73
2019-06-04 07:00:00 12.2 6 Nordeste 9 Nordeste 0 -- -- 81
2019-06-04 06:00:00 13.1 4 Nordeste 9 Norte 0 -- -- 78
2019-06-04 05:00:00 13.6 5 Norte 11 Norte 0 -- -- 74
2019-06-04 04:00:00 13.9 6 Norte 10 Norte 0 -- -- 80
2019-06-04 03:00:00 14.6 5 Norte 10 Nordeste 0 -- -- 79
2019-06-04 02:00:00 15 7 Norte 10 Norte 0 -- -- 79
2019-06-04 01:00:00 16 6 Norte 12 Norte 0 -- -- 76
2019-06-04 00:00:00 16.2 6 Norte 9 Norte 0 -- -- 76
2019-06-03 23:00:00 17.1 5 Norte 8 Norte 0 -- -- 70
2019-06-03 22:00:00 19.5 4 Norte 8 Noroeste 0 -- -- 62
2019-06-03 21:00:00 23 2 Norte 8 Sudoeste 0 -- -- 49
2019-06-03 20:00:00 23.3 4 Oeste 17 Sudoeste 0 -- -- 50
2019-06-03 19:00:00 23.3 12 Sudoeste 17 Sudoeste 0 -- -- 61
2019-06-03 18:00:00 23.1 7 Sudoeste 14 Sudoeste 0 -- -- 68
2019-06-03 17:00:00 22.9 8 Oeste 15 Sur 0 -- -- 67
2019-06-03 16:00:00 23.3 7 Sudoeste 17 Sudoeste 0 -- -- 66
2019-06-03 15:00:00 22.4 9 Sudoeste 18 Sudoeste 0 -- -- 69
2019-06-03 14:00:00 22.8 11 Sudoeste 18 Sudoeste 0 -- -- 66
2019-06-03 13:00:00 22.7 11 Sudoeste 20 Sudoeste 0 -- -- 69
2019-06-03 12:00:00 23.3 8 Sudoeste 18 Sudoeste 0 -- -- 63
2019-06-03 11:00:00 22.9 12 Sudoeste 18 Sudoeste 0 -- -- 52
2019-06-03 10:00:00 23.7 4 Sur 9 Nordeste 0 -- -- 40
2019-06-03 09:00:00 21.1 6 Nordeste 10 Nordeste 0 -- -- 49
2019-06-03 08:00:00 15.5 5 Nordeste 10 Nordeste 0 -- -- 76
2019-06-03 07:00:00 14.2 5 Nordeste 10 Norte 0 -- -- 76
2019-06-03 06:00:00 14.1 5 Nordeste 10 Nordeste 0 -- -- 76
2019-06-03 05:00:00 15.8 6 Nordeste 13 Nordeste 0 -- -- 68
2019-06-03 04:00:00 16 9 Nordeste 15 Nordeste 0 -- -- 68
2019-06-03 03:00:00 15.5 6 Norte 9 Nordeste 0 -- -- 70
2019-06-03 02:00:00 16 5 Norte 9 Norte 0 -- -- 68
2019-06-03 01:00:00 16.9 6 Norte 12 Nordeste 0 -- -- 64
2019-06-03 00:00:00 17 6 Norte 9 Norte 0 -- -- 65
2019-06-02 23:00:00 17.9 6 Norte 7 Norte 0 -- -- 61
2019-06-02 22:00:00 20.4 3 Norte 9 Oeste 0 -- -- 56
2019-06-02 21:00:00 22.2 5 Sudoeste 11 Sudoeste 0 -- -- 46
2019-06-02 20:00:00 23.1 8 Sudoeste 15 Sur 0 -- -- 42
2019-06-02 19:00:00 24.3 6 Oeste 17 Sudoeste 0 -- -- 39
2019-06-02 18:00:00 24.1 9 Sudoeste 19 Sudoeste 0 -- -- 39
2019-06-02 17:00:00 24.4 10 Sudoeste 22 Sudoeste 0 -- -- 34
2019-06-02 16:00:00 25 9 Sudoeste 21 Sudoeste 0 -- -- 31
2019-06-02 15:00:00 25.5 10 Oeste 19 Oeste 0 -- -- 30
2019-06-02 14:00:00 25.1 12 Oeste 21 Sudoeste 0 -- -- 31
2019-06-02 13:00:00 25.3 9 Sudoeste 17 Oeste 0 -- -- 30
2019-06-02 12:00:00 24.7 8 Oeste 16 Oeste 0 -- -- 35
2019-06-02 11:00:00 23.7 10 Oeste 19 Oeste 0 -- -- 44
2019-06-02 10:00:00 23.6 6 Sudoeste 14 Nordeste 0 -- -- 42
2019-06-02 09:00:00 21.1 9 Este 16 Este 0 -- -- 48
2019-06-02 08:00:00 16.1 7 Nordeste 11 Nordeste 0 -- -- 72
2019-06-02 07:00:00 13.9 8 Nordeste 12 Norte 0 -- -- 77
2019-06-02 06:00:00 14.7 8 Nordeste 12 Nordeste 0 -- -- 76
2019-06-02 05:00:00 14.3 6 Nordeste 10 Nordeste 0 -- -- 78
2019-06-02 04:00:00 14.5 5 Nordeste 9 Nordeste 0 -- -- 78
2019-06-02 03:00:00 16.1 7 Nordeste 11 Nordeste 0 -- -- 71
2019-06-02 02:00:00 16.1 7 Norte 10 Norte 0 -- -- 69
2019-06-02 01:00:00 16.7 6 Norte 11 Norte 0 -- -- 68
2019-06-02 00:00:00 18.4 4 Norte 13 Oeste 0 -- -- 68
2019-06-01 23:00:00 20.3 7 Noroeste 15 Oeste 0 -- -- 64
2019-06-01 22:00:00 21.1 6 Noroeste 14 Oeste 0 -- -- 58
2019-06-01 21:00:00 22.4 5 Oeste 12 Sudoeste 0 -- -- 49
2019-06-01 20:00:00 23.2 8 Sudoeste 17 Sudoeste 0 -- -- 46
2019-06-01 19:00:00 23.7 12 Sur 22 Sur 0 -- -- 43
2019-06-01 18:00:00 24.2 6 Sur 20 Sudoeste 0 -- -- 42
2019-06-01 17:00:00 24.7 8 Oeste 20 Sudoeste 0 -- -- 40
2019-06-01 16:00:00 25.4 11 Oeste 22 Sudoeste 0 -- -- 37
2019-06-01 15:00:00 25 10 Sudoeste 23 Sudoeste 0 -- -- 36
2019-06-01 14:00:00 25 9 Sudoeste 22 Sur 0 -- -- 37
2019-06-01 13:00:00 24.7 8 Sudoeste 27 Sudoeste 0 -- -- 36
2019-06-01 12:00:00 24.6 9 Sudoeste 27 Sur 0 -- -- 35
2019-06-01 11:00:00 24.7 8 Sur 17 Sur 0 -- -- 37
2019-06-01 10:00:00 23.1 4 Oeste 11 Nordeste 0 -- -- 54
2019-06-01 09:00:00 20.3 9 Nordeste 16 Este 0 -- -- 71
2019-06-01 08:00:00 16.4 7 Nordeste 13 Nordeste 0 -- -- 89
2019-06-01 07:00:00 14.7 6 Nordeste 12 Nordeste 0 -- -- 90
2019-06-01 06:00:00 14.9 7 Nordeste 10 Nordeste 0 -- -- 91
2019-06-01 05:00:00 14.9 7 Nordeste 9 Nordeste 0 -- -- 92
2019-06-01 04:00:00 15 7 Norte 10 Norte 0 -- -- 92
2019-06-01 03:00:00 15.4 4 Nordeste 7 Nordeste 0 -- -- 87
2019-06-01 02:00:00 16.4 7 Nordeste 9 Norte 0 -- -- 87
2019-06-01 01:00:00 17.4 5 Norte 12 Oeste 0 -- -- 83
2019-06-01 00:00:00 19.9 7 Oeste 14 Oeste 0 -- -- 77
2019-05-31 23:00:00 20.2 8 Oeste 24 Oeste 0 -- -- 74
2019-05-31 22:00:00 20.4 17 Oeste 30 Oeste 0 -- -- 74
2019-05-31 21:00:00 22.5 8 Oeste 26 Oeste 0 -- -- 60
2019-05-31 20:00:00 23.3 16 Oeste 26 Oeste 0 -- -- 56
2019-05-31 19:00:00 23.7 9 Oeste 23 Noroeste 0 -- -- 52
2019-05-31 18:00:00 24.3 14 Sur 24 Sudoeste 0 -- -- 51
2019-05-31 17:00:00 23.7 14 Sur 28 Sur 0 -- -- 51
2019-05-31 16:00:00 24.9 21 Sur 37 Sur 0 -- -- 47
2019-05-31 15:00:00 25.2 23 Sur 35 Sur 0 -- -- 44
2019-05-31 14:00:00 25.4 23 Sur 36 Sur 0 -- -- 44
2019-05-31 13:00:00 25.5 21 Sur 35 Sur 0 -- -- 41
2019-05-31 12:00:00 24.9 19 Sur 29 Sur 0 -- -- 40
2019-05-31 11:00:00 22.3 11 Sudoeste 19 Oeste 0 -- -- 53
2019-05-31 10:00:00 21.9 7 Sudoeste 13 Sudoeste 0 -- -- 52
2019-05-31 09:00:00 19.9 7 Nordeste 13 Nordeste 0 -- -- 61
2019-05-31 08:00:00 16 9 Nordeste 13 Nordeste 0 -- -- 78
2019-05-31 07:00:00 14.4 9 Nordeste 14 Nordeste 0 -- -- 81
2019-05-31 06:00:00 13.8 7 Nordeste 10 Nordeste 0 -- -- 87
2019-05-31 05:00:00 13.8 6 Norte 10 Nordeste 0 -- -- 85
2019-05-31 04:00:00 14.6 4 Norte 10 Nordeste 0 -- -- 83
2019-05-31 03:00:00 14.6 6 Nordeste 11 Norte 0 -- -- 83
2019-05-31 02:00:00 15.1 3 Nordeste 9 Norte 0 -- -- 83
2019-05-31 01:00:00 16.5 5 Nordeste 10 Nordeste 0 -- -- 81
2019-05-31 00:00:00 17.7 4 Norte 10 Oeste 0 -- -- 78
2019-05-30 23:00:00 19.4 8 Noroeste 14 Oeste 0 -- -- 75
2019-05-30 22:00:00 20.1 6 Oeste 18 Noroeste 0 -- -- 71
2019-05-30 21:00:00 21.3 6 Sudoeste 14 Sur 0 -- -- 61
2019-05-30 20:00:00 22.4 12 Sur 23 Sur 0 -- -- 49
2019-05-30 19:00:00 23.2 15 Sur 31 Sur 0 -- -- 49
2019-05-30 18:00:00 24.2 19 Sur 37 Sur 0 -- -- 43
2019-05-30 17:00:00 24 24 Sur 44 Sudeste 0 -- -- 41
2019-05-30 16:00:00 24.9 24 Sur 39 Sudeste 0 -- -- 37
2019-05-30 15:00:00 25.1 21 Sur 37 Sudeste 0 -- -- 42
2019-05-30 14:00:00 25 19 Sur 36 Sudeste 0 -- -- 48
2019-05-30 13:00:00 24.2 22 Sur 36 Sur 0 -- -- 47
2019-05-30 12:00:00 24.2 17 Sur 27 Sur 0 -- -- 52
2019-05-30 11:00:00 22.9 13 Sur 24 Sur 0 -- -- 54
2019-05-30 10:00:00 21.6 10 Sur 20 Sur 0 -- -- 63
2019-05-30 09:00:00 19.6 0 Calma 6 Nordeste 0 -- -- 72
2019-05-30 08:00:00 -- 5 Nordeste 8 Norte 0 -- -- --
2019-05-30 07:00:00 15.2 2 Noroeste 11 Nordeste 0 -- -- 87
2019-05-30 06:00:00 15.3 8 Nordeste 10 Nordeste 0 -- -- 90
2019-05-30 05:00:00 15.2 4 Nordeste 9 Nordeste 0 -- -- 88
2019-05-30 04:00:00 -- 5 Nordeste 9 Nordeste 0 -- -- --
2019-05-30 03:00:00 15.7 3 Nordeste 6 Nordeste 0 -- -- 88
2019-05-30 02:00:00 16.4 5 Nordeste 6 Nordeste 0 -- -- 86
2019-05-30 01:00:00 17.1 5 Nordeste 7 Nordeste 0 -- -- 85
2019-05-30 00:00:00 17.8 2 Este 4 Noroeste 0 -- -- 83
2019-05-29 23:00:00 18.8 0 Calma 15 Sudeste 0 -- -- 78
2019-05-29 22:00:00 19.8 9 Sudeste 18 Sudeste 0 -- -- 75
2019-05-29 21:00:00 20.8 10 Sur 27 Sudeste 0 -- -- 70
2019-05-29 20:00:00 22 19 Sudeste 30 Sudeste 0 -- -- 61
2019-05-29 19:00:00 23.2 18 Sur 29 Sudeste 0 -- -- 58
2019-05-29 18:00:00 23.9 15 Sur 28 Sudeste 0 -- -- 54
2019-05-29 17:00:00 24.1 20 Sur 31 Sur 0 -- -- 64
2019-05-29 16:00:00 24.4 22 Sur 31 Sudeste 0 -- -- 59
2019-05-29 15:00:00 24.8 18 Sur 29 Sur 0 -- -- 59
2019-05-29 14:00:00 24.4 14 Sur 26 Sudoeste 0 -- -- 60
2019-05-29 13:00:00 24.5 17 Sur 31 Sur 0 -- -- 56
2019-05-29 12:00:00 24.2 14 Sudoeste 26 Sur 0 -- -- 53
2019-05-29 11:00:00 23.4 11 Sudoeste 18 Sudoeste 0 -- -- 68
2019-05-29 10:00:00 23.3 7 Sudoeste 10 Sudoeste 0 -- -- 67
2019-05-29 09:00:00 21.5 5 Este 13 Nordeste 0 -- -- 73
2019-05-29 08:00:00 -- 10 Nordeste 14 Nordeste 0 -- -- --
2019-05-29 07:00:00 16.7 8 Nordeste 12 Nordeste 0 -- -- 90
2019-05-29 06:00:00 16.4 6 Nordeste 9 Nordeste 0 -- -- 90
2019-05-29 05:00:00 16.6 5 Nordeste 10 Nordeste 0 -- -- 90
2019-05-29 04:00:00 -- 6 Nordeste 9 Nordeste 0 -- -- --
2019-05-29 03:00:00 16.9 0 Calma 7 Nordeste 0 -- -- 88
2019-05-29 02:00:00 17.1 4 Nordeste 8 Norte 0 -- -- 86
2019-05-29 01:00:00 17.6 4 Nordeste 7 Norte 0 -- -- 86
2019-05-29 00:00:00 18.1 4 Norte 6 Norte 0 -- -- 83
2019-05-28 23:00:00 19.7 4 Nordeste 9 Noroeste 0 -- -- 85
2019-05-28 22:00:00 20.9 4 Oeste 10 Oeste 0 -- -- 84
2019-05-28 21:00:00 21.7 5 Sudoeste 13 Sudoeste 0 -- -- 83
2019-05-28 20:00:00 22.6 8 Sur 15 Sudoeste 0 -- -- 76
2019-05-28 19:00:00 23.5 9 Sudoeste 21 Sudoeste 0 -- -- 71
2019-05-28 18:00:00 24 9 Sudoeste 19 Sur 0 -- -- 70
2019-05-28 17:00:00 23.9 11 Sudoeste 22 Sudoeste 0 -- -- 70
2019-05-28 16:00:00 24.2 12 Sudoeste 22 Sudoeste 0 -- -- 67
2019-05-28 15:00:00 23.8 12 Sudoeste 26 Sur 0 -- -- 70
2019-05-28 14:00:00 25.2 16 Sur 26 Sudoeste 0 -- -- 56
2019-05-28 13:00:00 24.7 13 Sur 24 Sudoeste 0 -- -- 57
2019-05-28 12:00:00 24.4 14 Sur 22 Sudoeste 0 -- -- 58
2019-05-28 11:00:00 23.9 15 Sur 21 Sur 0 -- -- 64
2019-05-28 10:00:00 23.7 5 Sur 9 Sur 0 -- -- 60
2019-05-28 09:00:00 21.5 3 Este 8 Nordeste 0 -- -- 68
2019-05-28 08:00:00 -- 6 Norte 10 Norte 0 -- -- --
2019-05-28 07:00:00 15.4 7 Norte 11 Norte 0 -- -- 84
2019-05-28 06:00:00 15.2 7 Norte 10 Norte 0 -- -- 86
2019-05-28 05:00:00 14.9 3 Norte 7 Nordeste 0 -- -- 86
2019-05-28 04:00:00 15.2 5 Norte 10 Nordeste 0 -- -- 86
2019-05-28 03:00:00 15.4 4 Norte 8 Este 0 -- -- 84
2019-05-28 02:00:00 15.9 2 Este 8 Nordeste 0 -- -- 83
2019-05-28 01:00:00 16.2 5 Norte 9 Norte 0 -- -- 81
2019-05-28 00:00:00 17.4 3 Nordeste 5 Nordeste 0 -- -- 82
2019-05-27 23:00:00 18.2 0 Calma 6 Norte 0 -- -- 77
2019-05-27 22:00:00 20.1 0 Calma 7 Sudoeste 0 -- -- 67
2019-05-27 21:00:00 22.1 6 Oeste 11 Sur 0 -- -- 53
2019-05-27 20:00:00 22.6 4 Sudoeste 17 Sur 0 -- -- 48
2019-05-27 19:00:00 23.3 12 Sudoeste 24 Oeste 0 -- -- 52
2019-05-27 18:00:00 23.9 14 Sudoeste 24 Sudoeste 0 -- -- 43
2019-05-27 17:00:00 24.5 12 Sudoeste 20 Sudoeste 0 -- -- 44
2019-05-27 16:00:00 24.4 10 Oeste 22 Oeste 0 -- -- 44
2019-05-27 15:00:00 23.1 13 Sudoeste 24 Sudoeste 0 -- -- 52
2019-05-27 14:00:00 22.6 13 Sudoeste 22 Sudoeste 0 -- -- 60
2019-05-27 13:00:00 22.7 13 Sudoeste 21 Sudoeste 0 -- -- 58
2019-05-27 12:00:00 22.4 9 Sudoeste 15 Sudoeste 0 -- -- 57
2019-05-27 11:00:00 21.9 8 Sudoeste 13 Sudoeste 0 -- -- 55
2019-05-27 10:00:00 22.3 6 Oeste 11 Sudoeste 0 -- -- 50
2019-05-27 09:00:00 20.2 3 Nordeste 8 Nordeste 0 -- -- 54
2019-05-27 08:00:00 -- 4 Nordeste 11 Norte 0 -- -- --
2019-05-27 07:00:00 13.3 7 Norte 9 Norte 0 -- -- 83
2019-05-27 06:00:00 14.4 5 Nordeste 10 Norte 0 -- -- 78
2019-05-27 05:00:00 15 8 Norte 14 Nordeste 0 -- -- 75
2019-05-27 04:00:00 -- 9 Nordeste 14 Nordeste 0 -- -- --
2019-05-27 03:00:00 14.9 0 Calma 11 Norte 0 -- -- 80
2019-05-27 02:00:00 14.9 8 Norte 9 Norte 0 -- -- 85
2019-05-27 01:00:00 15.8 3 Oeste 10 Norte 0 -- -- 80
2019-05-27 00:00:00 16.4 8 Norte 10 Norte 0 -- -- 77
2019-05-26 23:00:00 17.3 6 Norte 8 Norte 0 -- -- 85
2019-05-26 22:00:00 19.2 2 Nordeste 8 Noroeste 0 -- -- 78
2019-05-26 21:00:00 20.9 5 Noroeste 9 Oeste 0 -- -- 68
2019-05-26 20:00:00 21.4 7 Sudoeste 14 Sudoeste 0 -- -- 64
2019-05-26 19:00:00 21.9 8 Sudoeste 16 Sudoeste 0 -- -- 63
2019-05-26 18:00:00 22.5 10 Sudoeste 19 Sur 0 -- -- 60
2019-05-26 17:00:00 22.3 12 Sudoeste 19 Sudoeste 0 -- -- 60
2019-05-26 16:00:00 22.5 12 Sudoeste 19 Sudoeste 0 -- -- 55
2019-05-26 15:00:00 22.7 12 Sudoeste 23 Sudoeste 0 -- -- 59
2019-05-26 14:00:00 22.5 12 Sudoeste 22 Oeste 0 -- -- 55
2019-05-26 13:00:00 22.6 11 Oeste 19 Oeste 0 -- -- 49
2019-05-26 12:00:00 22.4 10 Oeste 21 Oeste 0 -- -- 49
2019-05-26 11:00:00 22 9 Sudoeste 16 Oeste 0 -- -- 48
2019-05-26 10:00:00 21.7 5 Sudoeste 10 Sudoeste 0 -- -- 49
2019-05-26 09:00:00 20.1 5 Nordeste 13 Nordeste 0 -- -- 57
2019-05-26 08:00:00 -- 8 Nordeste 12 Nordeste 0 -- -- --
2019-05-26 07:00:00 14 6 Nordeste 14 Nordeste 0 -- -- 80
2019-05-26 06:00:00 13.6 8 Norte 11 Norte 0 -- -- 81
2019-05-26 05:00:00 13.7 5 Norte 9 Norte 0 -- -- 81
2019-05-26 04:00:00 -- 5 Norte 9 Norte 0 -- -- --
2019-05-26 03:00:00 14.9 7 Nordeste 10 Norte 0 -- -- 79
2019-05-26 02:00:00 15 6 Norte 10 Norte 0 -- -- 81
2019-05-26 01:00:00 15.9 5 Nordeste 9 Nordeste 0 -- -- 79
2019-05-26 00:00:00 16.6 5 Nordeste 8 Norte 0 -- -- 82